Time;durP1;ratioP1;P1;durP2;ratioP2;P2;SDS_P1;SDS_P2;PMS_P1;PMS_P2;Temp;Humidity;BMP_temperature;BMP_pressure;BME280_temperature;BME280_humidity;BME280_pressure;Samples;Min_cycle;Max_cycle;Signal;HPM_P1;HPM_P2
2023/07/07 06:10:38;;;;;;;11.40;10.20;;;;;;;;;;107537;1257;963601;-80
2023/07/07 06:13:04;;;;;;;11.40;10.20;;;;;;;;;;108520;1246;60599;-82
2023/07/07 06:15:30;;;;;;;11.20;10.10;;;;;;;;;;108691;1242;60464;-75
2023/07/07 06:17:57;;;;;;;10.90;9.80;;;;;;;;;;108086;1244;60454;-79
2023/07/07 06:20:22;;;;;;;12.70;10.20;;;;;;;;;;108515;1240;60419;-79
2023/07/07 06:22:48;;;;;;;12.10;10.70;;;;;;;;;;108534;1237;60588;-75
2023/07/07 06:25:14;;;;;;;11.40;10.20;;;;;;;;;;108586;1236;60558;-75
2023/07/07 06:27:40;;;;;;;12.80;10.40;;;;;;;;;;108581;1239;60545;-75
2023/07/07 06:30:06;;;;;;;12.10;10.90;;;;;;;;;;108182;1242;60606;-75
2023/07/07 06:32:32;;;;;;;11.90;10.70;;;;;;;;;;108207;1241;60484;-75
2023/07/07 06:34:58;;;;;;;12.10;10.70;;;;;;;;;;108572;1237;60493;-75
2023/07/07 06:37:24;;;;;;;14.00;11.50;;;;;;;;;;108612;1238;60570;-75
2023/07/07 06:39:50;;;;;;;13.80;12.40;;;;;;;;;;108538;1240;60831;-75
2023/07/07 06:42:16;;;;;;;11.40;10.20;;;;;;;;;;108097;1236;60571;-74
2023/07/07 06:44:42;;;;;;;11.80;10.70;;;;;;;;;;108517;1239;60352;-74
2023/07/07 06:47:12;;;;;;;11.40;9.50;;;;;;;;;;108560;1240;60465;-74
2023/07/07 06:49:38;;;;;;;12.10;10.50;;;;;;;;;;108170;1237;60490;-75
2023/07/07 06:52:04;;;;;;;12.70;9.00;;;;;;;;;;108567;1239;60587;-75
2023/07/07 06:54:29;;;;;;;18.90;10.90;;;;;;;;;;108564;1240;60536;-74
2023/07/07 06:56:55;;;;;;;13.60;9.40;;;;;;;;;;108561;1240;60631;-75
2023/07/07 06:59:21;;;;;;;10.50;9.30;;;;;;;;;;108586;1238;60468;-74
2023/07/07 07:01:47;;;;;;;11.30;10.10;;;;;;;;;;108564;1237;60558;-74
2023/07/07 07:04:12;;;;;;;13.20;9.40;;;;;;;;;;108574;1239;60424;-75
2023/07/07 07:06:40;;;;;;;12.30;9.80;;;;;;;;;;108612;1237;60548;-73
2023/07/07 07:09:07;;;;;;;11.30;9.30;;;;;;;;;;108544;1240;61259;-74
2023/07/07 07:11:33;;;;;;;10.30;9.30;;;;;;;;;;108614;1237;60544;-73
2023/07/07 07:13:58;;;;;;;11.10;9.70;;;;;;;;;;108513;1240;61076;-74
2023/07/07 07:16:24;;;;;;;11.80;8.80;;;;;;;;;;108564;1237;60462;-74
2023/07/07 07:18:50;;;;;;;15.10;9.20;;;;;;;;;;108508;1238;60494;-74
2023/07/07 07:21:16;;;;;;;9.10;8.20;;;;;;;;;;108507;1237;60410;-74
2023/07/07 07:23:42;;;;;;;12.00;8.50;;;;;;;;;;108542;1240;60548;-76
2023/07/07 07:26:08;;;;;;;11.00;8.80;;;;;;;;;;108522;1240;60483;-74
2023/07/07 07:28:33;;;;;;;11.50;9.00;;;;;;;;;;108514;1239;60421;-76
2023/07/07 07:30:59;;;;;;;13.20;9.40;;;;;;;;;;108583;1240;60547;-74
2023/07/07 07:33:25;;;;;;;16.30;9.50;;;;;;;;;;108550;1239;60632;-74
2023/07/07 07:35:51;;;;;;;9.90;8.10;;;;;;;;;;108551;1240;60354;-74
2023/07/07 07:38:19;;;;;;;10.60;7.90;;;;;;;;;;108442;1240;152248;-74
2023/07/07 07:40:45;;;;;;;12.20;7.80;;;;;;;;;;108626;1238;60464;-73
2023/07/07 07:43:10;;;;;;;11.70;8.50;;;;;;;;;;108541;1237;60487;-73
2023/07/07 07:45:37;;;;;;;14.30;9.20;;;;;;;;;;108578;1237;60446;-74
2023/07/07 07:48:03;;;;;;;11.40;8.90;;;;;;;;;;108551;1237;60547;-74
2023/07/07 07:50:30;;;;;;;10.90;8.10;;;;;;;;;;108594;1240;60426;-74
2023/07/07 07:52:55;;;;;;;9.70;7.30;;;;;;;;;;108583;1241;60494;-75
2023/07/07 07:55:21;;;;;;;11.90;7.70;;;;;;;;;;108627;1237;60601;-75
2023/07/07 07:57:47;;;;;;;9.20;6.80;;;;;;;;;;108592;1237;60543;-75
2023/07/07 08:00:13;;;;;;;10.20;7.00;;;;;;;;;;108600;1240;60637;-73
2023/07/07 08:02:40;;;;;;;8.90;7.90;;;;;;;;;;108218;1237;60664;-76
2023/07/07 08:05:06;;;;;;;10.20;7.30;;;;;;;;;;108805;1237;60468;-76
2023/07/07 08:07:32;;;;;;;8.90;7.20;;;;;;;;;;108252;1244;62228;-74
2023/07/07 08:09:58;;;;;;;8.80;7.30;;;;;;;;;;108648;1235;60422;-77
2023/07/07 08:12:24;;;;;;;10.80;7.70;;;;;;;;;;108653;1237;60625;-73
2023/07/07 08:14:50;;;;;;;8.30;6.70;;;;;;;;;;108653;1234;60463;-76
2023/07/07 08:17:16;;;;;;;8.70;7.00;;;;;;;;;;108598;1238;60541;-74
2023/07/07 08:19:42;;;;;;;7.40;5.40;;;;;;;;;;108836;1234;60527;-76
2023/07/07 08:22:11;;;;;;;7.20;5.60;;;;;;;;;;108877;1234;60512;-76
2023/07/07 08:24:38;;;;;;;10.30;5.80;;;;;;;;;;108953;1235;60498;-75
2023/07/07 08:27:04;;;;;;;8.70;5.60;;;;;;;;;;108856;1235;61734;-74
2023/07/07 08:29:30;;;;;;;7.20;5.50;;;;;;;;;;108920;1234;60426;-75
2023/07/07 08:31:55;;;;;;;6.40;5.10;;;;;;;;;;108883;1231;60458;-75
2023/07/07 08:34:21;;;;;;;5.60;4.60;;;;;;;;;;108902;1231;60464;-75
2023/07/07 08:36:47;;;;;;;7.40;4.30;;;;;;;;;;108869;1230;60538;-76
2023/07/07 08:39:15;;;;;;;5.80;3.90;;;;;;;;;;108670;1231;60420;-75
2023/07/07 08:41:44;;;;;;;8.20;4.50;;;;;;;;;;108744;1236;60542;-75
2023/07/07 08:44:13;;;;;;;5.40;4.00;;;;;;;;;;108862;1230;60458;-74
2023/07/07 08:46:52;;;;;;;4.40;3.60;;;;;;;;;;108867;1231;60343;-75
2023/07/07 08:49:31;;;;;;;3.60;3.30;;;;;;;;;;108896;1236;60400;-74
2023/07/07 08:52:09;;;;;;;5.50;3.90;;;;;;;;;;108900;1231;61147;-75
2023/07/07 08:54:41;;;;;;;5.10;4.10;;;;;;;;;;108926;1231;60427;-78
2023/07/07 08:57:17;;;;;;;4.90;3.50;;;;;;;;;;108720;1235;61551;-80
2023/07/07 08:59:59;;;;;;;6.20;3.90;;;;;;;;;;108753;1231;60438;-79
2023/07/07 09:02:44;;;;;;;6.30;4.20;;;;;;;;;;108531;1239;60540;-79
2023/07/07 09:05:10;;;;;;;3.60;2.50;;;;;;;;;;108772;1233;61789;-79
2023/07/07 09:07:38;;;;;;;2.80;2.50;;;;;;;;;;108987;1243;60473;-78
2023/07/07 09:10:23;;;;;;;3.30;3.00;;;;;;;;;;109046;1236;60685;-79
2023/07/07 09:13:01;;;;;;;4.00;3.40;;;;;;;;;;109082;1236;60459;-79
2023/07/07 09:15:29;;;;;;;4.90;3.60;;;;;;;;;;109171;1235;60410;-79
2023/07/07 09:17:58;;;;;;;9.10;3.70;;;;;;;;;;108969;1231;61572;-78
2023/07/07 09:20:26;;;;;;;4.60;4.10;;;;;;;;;;108809;1235;60560;-78
2023/07/07 09:23:03;;;;;;;4.60;4.20;;;;;;;;;;108766;1236;60517;-78
2023/07/07 09:25:38;;;;;;;5.80;4.60;;;;;;;;;;108475;1237;60354;-78
2023/07/07 09:28:08;;;;;;;5.40;4.50;;;;;;;;;;108804;1235;60329;-78
2023/07/07 09:30:52;;;;;;;7.70;4.60;;;;;;;;;;108762;1235;60448;-78
2023/07/07 09:33:19;;;;;;;4.70;4.20;;;;;;;;;;108802;1231;60516;-78
2023/07/07 09:35:58;;;;;;;5.50;4.50;;;;;;;;;;108748;1231;60426;-77
2023/07/07 09:38:46;;;;;;;6.70;4.10;;;;;;;;;;108785;1235;60519;-79
2023/07/07 09:41:20;;;;;;;4.20;3.80;;;;;;;;;;108801;1243;60423;-79
2023/07/07 09:44:04;;;;;;;6.40;4.10;;;;;;;;;;108839;1232;61446;-79
2023/07/07 09:46:30;;;;;;;6.10;4.00;;;;;;;;;;108915;1232;60430;-78
2023/07/07 09:48:59;;;;;;;4.10;3.70;;;;;;;;;;108904;1234;61040;-78
2023/07/07 09:51:34;;;;;;;7.70;3.90;;;;;;;;;;108763;1231;60558;-78
2023/07/07 09:54:00;;;;;;;5.40;4.80;;;;;;;;;;108753;1236;60336;-78
2023/07/07 09:56:31;;;;;;;4.70;3.70;;;;;;;;;;112621;1231;58123;-79
2023/07/07 09:59:06;;;;;;;8.20;4.60;;;;;;;;;;112613;1231;58115;-78
2023/07/07 10:01:34;;;;;;;8.20;4.60;;;;;;;;;;112569;1230;59726;-78
2023/07/07 10:04:00;;;;;;;7.70;4.70;;;;;;;;;;112609;1231;58152;-78
2023/07/07 10:06:33;;;;;;;8.80;4.40;;;;;;;;;;112621;1232;57982;-79
2023/07/07 10:08:59;;;;;;;6.10;4.20;;;;;;;;;;112619;1230;61144;-78
2023/07/07 10:11:30;;;;;;;4.00;3.60;;;;;;;;;;112469;1231;58423;-78
2023/07/07 10:13:56;;;;;;;8.10;3.80;;;;;;;;;;112556;1231;59620;-78
2023/07/07 10:16:28;;;;;;;4.70;2.90;;;;;;;;;;112567;1231;58407;-78
2023/07/07 10:18:54;;;;;;;4.40;3.30;;;;;;;;;;112600;1230;58134;-79
2023/07/07 10:21:20;;;;;;;5.50;3.00;;;;;;;;;;112565;1230;58059;-79
2023/07/07 10:23:46;;;;;;;6.70;3.00;;;;;;;;;;112629;1231;58121;-78
2023/07/07 10:26:11;;;;;;;3.40;2.70;;;;;;;;;;112618;1231;58187;-79
2023/07/07 10:28:37;;;;;;;3.40;2.90;;;;;;;;;;112574;1231;58086;-79
2023/07/07 10:31:04;;;;;;;4.60;3.20;;;;;;;;;;112638;1231;58118;-79
2023/07/07 10:33:29;;;;;;;3.10;2.80;;;;;;;;;;112616;1231;58537;-80
2023/07/07 10:35:55;;;;;;;4.00;3.10;;;;;;;;;;112621;1231;58127;-79
2023/07/07 10:38:22;;;;;;;4.00;3.00;;;;;;;;;;112585;1231;58091;-79
2023/07/07 10:40:48;;;;;;;4.40;3.00;;;;;;;;;;112630;1230;58110;-79
2023/07/07 10:43:15;;;;;;;3.30;2.40;;;;;;;;;;112631;1231;58199;-79
2023/07/07 10:45:44;;;;;;;3.80;3.10;;;;;;;;;;112639;1231;58102;-79
2023/07/07 10:48:12;;;;;;;4.60;2.90;;;;;;;;;;112567;1231;58187;-79
2023/07/07 10:50:52;;;;;;;3.70;3.20;;;;;;;;;;112455;1231;58179;-79
2023/07/07 10:53:28;;;;;;;3.60;2.80;;;;;;;;;;112607;1231;58105;-79
2023/07/07 10:56:17;;;;;;;5.30;3.40;;;;;;;;;;112243;1231;60958;-79
2023/07/07 10:58:50;;;;;;;5.40;2.80;;;;;;;;;;112649;1231;57973;-79
2023/07/07 11:01:15;;;;;;;3.20;2.80;;;;;;;;;;112592;1231;58419;-78
2023/07/07 11:03:44;;;;;;;4.70;3.40;;;;;;;;;;112635;1230;58166;-79
2023/07/07 11:06:12;;;;;;;4.80;2.70;;;;;;;;;;112618;1231;58079;-79
2023/07/07 11:08:57;;;;;;;8.40;3.20;;;;;;;;;;112553;1231;59772;-79
2023/07/07 11:11:41;;;;;;;5.40;3.00;;;;;;;;;;112580;1231;58025;-79
2023/07/07 11:14:07;;;;;;;4.40;2.80;;;;;;;;;;112559;1231;58593;-82
2023/07/07 11:16:45;;;;;;;3.00;2.30;;;;;;;;;;112544;1234;58122;-78
2023/07/07 11:19:30;;;;;;;3.70;2.90;;;;;;;;;;112574;1231;58178;-79
2023/07/07 11:22:01;;;;;;;3.40;2.60;;;;;;;;;;112339;1231;59580;-79
2023/07/07 11:24:46;;;;;;;4.00;2.90;;;;;;;;;;112683;1231;58055;-79
2023/07/07 11:27:21;;;;;;;3.80;3.20;;;;;;;;;;112673;1230;58318;-77
2023/07/07 11:30:05;;;;;;;4.60;3.30;;;;;;;;;;112624;1231;58088;-79
2023/07/07 11:32:38;;;;;;;3.00;2.70;;;;;;;;;;112695;1230;57996;-79
2023/07/07 11:35:07;;;;;;;3.70;3.30;;;;;;;;;;112688;1230;60922;-79
2023/07/07 11:37:35;;;;;;;2.70;2.50;;;;;;;;;;112667;1231;58030;-80
2023/07/07 11:40:01;;;;;;;3.50;3.20;;;;;;;;;;112464;1231;58448;-79
2023/07/07 11:42:29;;;;;;;2.50;2.30;;;;;;;;;;112611;1233;58113;-82
2023/07/07 11:45:05;;;;;;;3.40;2.90;;;;;;;;;;112708;1231;58003;-83
2023/07/07 11:47:48;;;;;;;3.30;2.10;;;;;;;;;;112433;1231;61050;-83
2023/07/07 11:50:16;;;;;;;3.90;2.50;;;;;;;;;;112748;1231;58131;-83
2023/07/07 11:52:52;;;;;;;3.90;2.30;;;;;;;;;;112677;1229;58195;-84
2023/07/07 11:55:41;;;;;;;3.30;2.80;;;;;;;;;;112673;1231;58554;-82
2023/07/07 11:58:17;;;;;;;2.90;2.40;;;;;;;;;;111886;1237;58147;-82
2023/07/07 12:00:46;;;;;;;4.80;2.20;;;;;;;;;;111653;1237;59672;-83
2023/07/07 12:03:30;;;;;;;3.60;2.40;;;;;;;;;;111972;1237;58212;-83
2023/07/07 12:05:57;;;;;;;2.90;2.10;;;;;;;;;;111892;1237;59512;-82
2023/07/07 12:08:38;;;;;;;4.50;2.70;;;;;;;;;;111915;1237;58144;-83
2023/07/07 12:11:06;;;;;;;4.30;2.60;;;;;;;;;;111830;1237;58153;-82
2023/07/07 12:13:35;;;;;;;3.60;2.50;;;;;;;;;;111929;1237;59866;-81
2023/07/07 12:16:15;;;;;;;4.60;2.40;;;;;;;;;;111940;1237;58091;-79
2023/07/07 12:18:44;;;;;;;3.90;2.60;;;;;;;;;;111866;1240;60079;-80
2023/07/07 12:21:13;;;;;;;5.50;2.70;;;;;;;;;;111709;1241;58228;-82
2023/07/07 12:23:40;;;;;;;5.10;3.00;;;;;;;;;;111648;1242;58269;-82
2023/07/07 12:26:19;;;;;;;10.10;2.70;;;;;;;;;;111622;1241;59901;-83
2023/07/07 12:28:53;;;;;;;2.60;2.30;;;;;;;;;;111627;1241;58438;-83
2023/07/07 12:31:19;;;;;;;3.90;2.70;;;;;;;;;;111620;1242;59887;-82
2023/07/07 12:33:51;;;;;;;3.00;2.60;;;;;;;;;;111598;1243;58487;-81
2023/07/07 12:36:17;;;;;;;2.70;2.50;;;;;;;;;;112180;1233;58317;-82
2023/07/07 12:38:47;;;;;;;3.30;2.10;;;;;;;;;;112322;1233;59663;-82
2023/07/07 12:41:15;;;;;;;5.00;2.10;;;;;;;;;;112339;1234;58149;-82
2023/07/07 12:43:44;;;;;;;3.70;2.30;;;;;;;;;;112267;1234;58436;-82
2023/07/07 12:46:22;;;;;;;4.60;2.00;;;;;;;;;;112409;1234;58099;-81
2023/07/07 12:48:50;;;;;;;4.10;2.50;;;;;;;;;;112612;1234;58154;-82
2023/07/07 12:51:17;;;;;;;2.40;2.10;;;;;;;;;;112767;1232;59580;-83
2023/07/07 12:53:51;;;;;;;3.40;2.90;;;;;;;;;;112770;1231;58029;-82
2023/07/07 12:56:19;;;;;;;5.00;2.20;;;;;;;;;;112680;1231;58324;-82
2023/07/07 12:58:52;;;;;;;3.40;2.40;;;;;;;;;;112629;1230;58193;-83
2023/07/07 13:01:18;;;;;;;3.90;2.40;;;;;;;;;;112696;1231;58111;-82
2023/07/07 13:04:02;;;;;;;2.90;2.10;;;;;;;;;;112687;1232;58534;-82
2023/07/07 13:06:31;;;;;;;5.10;2.10;;;;;;;;;;112699;1230;58101;-83
2023/07/07 13:09:20;;;;;;;2.50;2.30;;;;;;;;;;112681;1230;60738;-82
2023/07/07 13:11:56;;;;;;;2.90;2.50;;;;;;;;;;112626;1230;58327;-82
2023/07/07 13:14:25;;;;;;;2.80;2.00;;;;;;;;;;112718;1229;58058;-83
2023/07/07 13:16:50;;;;;;;3.20;2.40;;;;;;;;;;112730;1231;59559;-83
2023/07/07 13:19:17;;;;;;;4.10;2.90;;;;;;;;;;112750;1231;58048;-83
2023/07/07 13:21:44;;;;;;;2.90;1.90;;;;;;;;;;112671;1230;58124;-82
2023/07/07 13:24:11;;;;;;;2.70;2.40;;;;;;;;;;112721;1230;58203;-84
2023/07/07 13:26:37;;;;;;;2.40;2.20;;;;;;;;;;112675;1232;58132;-83
2023/07/07 13:29:04;;;;;;;2.50;2.30;;;;;;;;;;112709;1230;58264;-82
2023/07/07 13:31:30;;;;;;;2.20;2.10;;;;;;;;;;112706;1230;58103;-82
2023/07/07 13:33:56;;;;;;;3.80;2.10;;;;;;;;;;112679;1230;58171;-81
2023/07/07 13:36:22;;;;;;;2.40;2.20;;;;;;;;;;112618;1230;58144;-82
2023/07/07 13:38:49;;;;;;;4.80;2.60;;;;;;;;;;112690;1232;58117;-82
2023/07/07 13:41:17;;;;;;;3.40;2.50;;;;;;;;;;112514;1232;58433;-81
2023/07/07 13:43:44;;;;;;;3.30;2.40;;;;;;;;;;112339;1230;58054;-84
2023/07/07 13:46:30;;;;;;;2.60;2.40;;;;;;;;;;112692;1230;59718;-83
2023/07/07 13:48:58;;;;;;;5.30;2.30;;;;;;;;;;112709;1230;58727;-81
2023/07/07 13:51:25;;;;;;;2.90;2.50;;;;;;;;;;112716;1232;57981;-83
2023/07/07 13:53:51;;;;;;;3.00;2.60;;;;;;;;;;112691;1231;59573;-84
2023/07/07 13:56:17;;;;;;;2.20;2.10;;;;;;;;;;112692;1230;58042;-83
2023/07/07 13:58:45;;;;;;;3.50;2.30;;;;;;;;;;112778;1230;58112;-86
2023/07/07 14:01:28;;;;;;;3.90;2.70;;;;;;;;;;112633;1232;58058;-82
2023/07/07 14:03:55;;;;;;;3.50;2.20;;;;;;;;;;112706;1230;58121;-82
2023/07/07 14:06:22;;;;;;;2.50;2.30;;;;;;;;;;112678;1231;60125;-82
2023/07/07 14:08:47;;;;;;;4.20;2.00;;;;;;;;;;112624;1232;58045;-81
2023/07/07 14:11:21;;;;;;;3.00;2.30;;;;;;;;;;112651;1230;58136;-83
2023/07/07 14:13:59;;;;;;;3.90;2.30;;;;;;;;;;112648;1230;58535;-83
2023/07/07 14:16:25;;;;;;;3.80;2.30;;;;;;;;;;112677;1230;58040;-82
2023/07/07 14:19:00;;;;;;;2.50;2.30;;;;;;;;;;112697;1231;58180;-82
2023/07/07 14:21:26;;;;;;;3.30;2.20;;;;;;;;;;112757;1232;57986;-81
2023/07/07 14:23:52;;;;;;;2.10;1.90;;;;;;;;;;112707;1230;58146;-82
2023/07/07 14:26:20;;;;;;;2.00;1.80;;;;;;;;;;112637;1234;58653;-84
2023/07/07 14:28:46;;;;;;;2.40;2.20;;;;;;;;;;112701;1231;58392;-81
2023/07/07 14:31:12;;;;;;;2.90;2.00;;;;;;;;;;112698;1230;58065;-83
2023/07/07 14:33:40;;;;;;;3.60;1.90;;;;;;;;;;112717;1232;58076;-83
2023/07/07 14:36:15;;;;;;;4.80;2.10;;;;;;;;;;112691;1230;60898;-83
2023/07/07 14:38:45;;;;;;;3.30;2.40;;;;;;;;;;112910;1234;57907;-82
2023/07/07 14:41:16;;;;;;;2.70;2.10;;;;;;;;;;112553;1231;58338;-83
2023/07/07 14:43:42;;;;;;;2.30;1.80;;;;;;;;;;112722;1230;59778;-83
2023/07/07 14:46:15;;;;;;;2.80;2.50;;;;;;;;;;112733;1233;57990;-82
2023/07/07 14:48:45;;;;;;;3.00;2.00;;;;;;;;;;112650;1230;58390;-83
2023/07/07 14:51:14;;;;;;;2.80;2.10;;;;;;;;;;112667;1231;58093;-82
2023/07/07 14:53:39;;;;;;;2.40;2.20;;;;;;;;;;112677;1230;58022;-83
2023/07/07 14:56:13;;;;;;;3.10;2.30;;;;;;;;;;112666;1231;58271;-83
2023/07/07 14:58:40;;;;;;;3.00;2.40;;;;;;;;;;112704;1230;57962;-83
2023/07/07 15:01:06;;;;;;;4.40;2.20;;;;;;;;;;112588;1231;59461;-81
2023/07/07 15:03:34;;;;;;;4.50;2.30;;;;;;;;;;112653;1230;58155;-83
2023/07/07 15:06:09;;;;;;;2.70;1.80;;;;;;;;;;112673;1231;58425;-83
2023/07/07 15:08:36;;;;;;;2.60;2.00;;;;;;;;;;112694;1232;59914;-82
2023/07/07 15:11:03;;;;;;;2.40;2.20;;;;;;;;;;112695;1229;58000;-82
2023/07/07 15:13:30;;;;;;;3.90;2.30;;;;;;;;;;112721;1230;60005;-83
2023/07/07 15:15:56;;;;;;;2.60;1.70;;;;;;;;;;112696;1231;58078;-82
2023/07/07 15:18:22;;;;;;;2.70;1.90;;;;;;;;;;112712;1232;58065;-82
2023/07/07 15:20:48;;;;;;;2.00;1.80;;;;;;;;;;112282;1230;59527;-83
2023/07/07 15:23:14;;;;;;;3.10;1.80;;;;;;;;;;112669;1230;58055;-82
2023/07/07 15:25:40;;;;;;;2.90;2.40;;;;;;;;;;112641;1230;58154;-84
2023/07/07 15:28:13;;;;;;;4.30;2.00;;;;;;;;;;112670;1230;58122;-82
2023/07/07 15:30:39;;;;;;;3.90;2.20;;;;;;;;;;112680;1230;57972;-83
2023/07/07 15:33:05;;;;;;;4.90;2.40;;;;;;;;;;112702;1232;58211;-82
2023/07/07 15:35:31;;;;;;;2.10;2.00;;;;;;;;;;112638;1233;58066;-84
2023/07/07 15:38:01;;;;;;;4.80;2.20;;;;;;;;;;112660;1230;58143;-83
2023/07/07 15:40:28;;;;;;;2.30;1.90;;;;;;;;;;112372;1230;58202;-83
2023/07/07 15:42:53;;;;;;;2.00;1.80;;;;;;;;;;112797;1230;58418;-83
2023/07/07 15:45:19;;;;;;;5.20;3.50;;;;;;;;;;112767;1231;58087;-83
2023/07/07 15:47:45;;;;;;;4.80;2.50;;;;;;;;;;112848;1230;58315;-83
2023/07/07 15:50:14;;;;;;;2.60;2.30;;;;;;;;;;112814;1231;58004;-82
2023/07/07 15:52:40;;;;;;;2.20;2.00;;;;;;;;;;112303;1232;58100;-83
2023/07/07 15:55:06;;;;;;;3.20;2.50;;;;;;;;;;112766;1232;58150;-83
2023/07/07 15:57:32;;;;;;;4.00;2.20;;;;;;;;;;112993;1231;57966;-82
2023/07/07 15:59:58;;;;;;;3.20;2.20;;;;;;;;;;112977;1232;57939;-84
2023/07/07 16:02:27;;;;;;;3.60;2.20;;;;;;;;;;112710;1230;58243;-81
2023/07/07 16:04:53;;;;;;;3.30;2.40;;;;;;;;;;112673;1230;58173;-77
2023/07/07 16:07:19;;;;;;;3.10;2.60;;;;;;;;;;112616;1230;58221;-78
2023/07/07 16:09:44;;;;;;;4.00;2.40;;;;;;;;;;112677;1231;58058;-78
2023/07/07 16:12:11;;;;;;;4.40;2.40;;;;;;;;;;112680;1230;58071;-78
2023/07/07 16:14:37;;;;;;;2.30;2.10;;;;;;;;;;112600;1230;58108;-78
2023/07/07 16:17:03;;;;;;;3.70;2.00;;;;;;;;;;112619;1232;58078;-78
2023/07/07 16:19:30;;;;;;;3.00;2.60;;;;;;;;;;112655;1230;58185;-79
2023/07/07 16:21:55;;;;;;;2.20;2.00;;;;;;;;;;112671;1232;58148;-77
2023/07/07 16:24:21;;;;;;;3.90;2.10;;;;;;;;;;112661;1230;58133;-78
2023/07/07 16:26:47;;;;;;;2.90;2.10;;;;;;;;;;112671;1231;58136;-77
2023/07/07 16:29:14;;;;;;;2.80;2.10;;;;;;;;;;112745;1230;58043;-77
2023/07/07 16:31:40;;;;;;;2.70;2.00;;;;;;;;;;112658;1231;59825;-78
2023/07/07 16:34:06;;;;;;;3.40;2.40;;;;;;;;;;112740;1230;58153;-77
2023/07/07 16:36:32;;;;;;;6.50;2.30;;;;;;;;;;112654;1230;58148;-78
2023/07/07 16:38:58;;;;;;;2.90;2.40;;;;;;;;;;112654;1230;58105;-79
2023/07/07 16:41:24;;;;;;;3.80;2.50;;;;;;;;;;112711;1230;58145;-78
2023/07/07 16:43:51;;;;;;;2.80;2.30;;;;;;;;;;112624;1231;58071;-78
2023/07/07 16:46:18;;;;;;;3.20;2.10;;;;;;;;;;112689;1230;58485;-80
2023/07/07 16:48:45;;;;;;;6.80;2.50;;;;;;;;;;112613;1230;58158;-79
2023/07/07 16:51:14;;;;;;;4.10;2.50;;;;;;;;;;112672;1230;58027;-74
2023/07/07 16:53:41;;;;;;;4.50;2.80;;;;;;;;;;112672;1230;58002;-74
2023/07/07 16:56:15;;;;;;;3.70;2.20;;;;;;;;;;112640;1232;58117;-75
2023/07/07 16:58:40;;;;;;;4.20;2.50;;;;;;;;;;112636;1230;58417;-75
2023/07/07 17:01:09;;;;;;;3.20;2.40;;;;;;;;;;112636;1230;58181;-76
2023/07/07 17:03:34;;;;;;;3.10;2.20;;;;;;;;;;112593;1230;58113;-75
2023/07/07 17:06:01;;;;;;;3.50;2.10;;;;;;;;;;112695;1230;58186;-75
2023/07/07 17:08:26;;;;;;;2.30;2.20;;;;;;;;;;112683;1231;58046;-74
2023/07/07 17:10:52;;;;;;;2.70;2.20;;;;;;;;;;112651;1230;58257;-75
2023/07/07 17:13:18;;;;;;;2.50;2.20;;;;;;;;;;112654;1230;58146;-75
2023/07/07 17:15:44;;;;;;;4.50;2.50;;;;;;;;;;112631;1230;58069;-75
2023/07/07 17:18:11;;;;;;;3.30;2.40;;;;;;;;;;112745;1230;58463;-75
2023/07/07 17:20:37;;;;;;;3.00;2.20;;;;;;;;;;112618;1231;58444;-75
2023/07/07 17:23:02;;;;;;;2.50;2.30;;;;;;;;;;112718;1230;58374;-75
2023/07/07 17:25:28;;;;;;;2.90;2.20;;;;;;;;;;112648;1231;58079;-75
2023/07/07 17:27:54;;;;;;;2.50;2.10;;;;;;;;;;112664;1230;58060;-74
2023/07/07 17:30:21;;;;;;;5.40;2.60;;;;;;;;;;112643;1231;58137;-74
2023/07/07 17:32:47;;;;;;;2.30;2.10;;;;;;;;;;112693;1230;58201;-75
2023/07/07 17:35:14;;;;;;;5.80;3.00;;;;;;;;;;112667;1230;58176;-75
2023/07/07 17:37:40;;;;;;;3.90;2.60;;;;;;;;;;112636;1230;58129;-75
2023/07/07 17:40:12;;;;;;;4.60;2.80;;;;;;;;;;112690;1233;58122;-75
2023/07/07 17:42:38;;;;;;;3.60;2.80;;;;;;;;;;112629;1230;61144;-75
2023/07/07 17:45:04;;;;;;;4.70;2.70;;;;;;;;;;112708;1230;58130;-75
2023/07/07 17:47:30;;;;;;;3.20;2.90;;;;;;;;;;112641;1231;58529;-75
2023/07/07 17:50:02;;;;;;;6.00;2.90;;;;;;;;;;112619;1230;58128;-75
2023/07/07 17:52:28;;;;;;;4.20;3.10;;;;;;;;;;112661;1231;58089;-75
2023/07/07 17:54:54;;;;;;;2.80;2.60;;;;;;;;;;112638;1230;58103;-75
2023/07/07 17:57:20;;;;;;;3.30;2.90;;;;;;;;;;112664;1230;58075;-75
2023/07/07 17:59:46;;;;;;;3.80;2.90;;;;;;;;;;112646;1230;58227;-75
2023/07/07 18:02:11;;;;;;;4.30;3.10;;;;;;;;;;112651;1230;58116;-75
2023/07/07 18:04:37;;;;;;;6.50;3.10;;;;;;;;;;112643;1230;58156;-75
2023/07/07 18:07:03;;;;;;;3.30;2.70;;;;;;;;;;112651;1230;58123;-75
2023/07/07 18:09:29;;;;;;;5.60;2.90;;;;;;;;;;112668;1231;59007;-75
2023/07/07 18:11:54;;;;;;;4.00;3.60;;;;;;;;;;112576;1231;58120;-75
2023/07/07 18:14:22;;;;;;;8.10;4.80;;;;;;;;;;112721;1230;58140;-75
2023/07/07 18:16:48;;;;;;;10.20;5.20;;;;;;;;;;112699;1229;59922;-75
2023/07/07 18:19:15;;;;;;;13.60;7.90;;;;;;;;;;112642;1230;58102;-75
2023/07/07 18:21:42;;;;;;;15.00;8.30;;;;;;;;;;112616;1230;58909;-75
2023/07/07 18:24:08;;;;;;;12.40;6.50;;;;;;;;;;112584;1229;58304;-76
2023/07/07 18:26:35;;;;;;;13.00;6.20;;;;;;;;;;112658;1231;58237;-74
2023/07/07 18:29:02;;;;;;;9.80;5.60;;;;;;;;;;112712;1230;58147;-75
2023/07/07 18:31:29;;;;;;;8.40;5.50;;;;;;;;;;112623;1231;58316;-75
2023/07/07 18:33:54;;;;;;;8.80;5.40;;;;;;;;;;112606;1230;59580;-75
2023/07/07 18:36:20;;;;;;;8.50;4.70;;;;;;;;;;112642;1231;58146;-74
2023/07/07 18:38:46;;;;;;;7.10;5.10;;;;;;;;;;112286;1229;59099;-74
2023/07/07 18:41:14;;;;;;;9.20;5.20;;;;;;;;;;112632;1230;58104;-74
2023/07/07 18:43:41;;;;;;;7.10;4.90;;;;;;;;;;112638;1230;58034;-74
2023/07/07 18:46:09;;;;;;;8.00;5.10;;;;;;;;;;112671;1231;60352;-74
2023/07/07 18:48:35;;;;;;;8.00;4.60;;;;;;;;;;112264;1233;58517;-73
2023/07/07 18:51:01;;;;;;;7.20;4.60;;;;;;;;;;112632;1230;58122;-74
2023/07/07 18:53:27;;;;;;;5.60;4.50;;;;;;;;;;112708;1230;58152;-74
2023/07/07 18:55:52;;;;;;;7.20;4.70;;;;;;;;;;112640;1230;58572;-74
2023/07/07 18:58:18;;;;;;;5.30;4.10;;;;;;;;;;112636;1229;58132;-75
2023/07/07 19:00:45;;;;;;;7.00;4.50;;;;;;;;;;112688;1230;58155;-75
2023/07/07 19:03:11;;;;;;;6.50;4.70;;;;;;;;;;112692;1231;58210;-75
2023/07/07 19:05:38;;;;;;;6.30;5.40;;;;;;;;;;112349;1230;58546;-75
2023/07/07 19:08:11;;;;;;;10.50;5.50;;;;;;;;;;112642;1231;58145;-74
2023/07/07 19:10:38;;;;;;;6.20;5.00;;;;;;;;;;112677;1229;59754;-74
2023/07/07 19:13:17;;;;;;;6.50;5.20;;;;;;;;;;112624;1230;58146;-74
2023/07/07 19:15:44;;;;;;;7.70;6.10;;;;;;;;;;112732;1230;58245;-75
2023/07/07 19:18:18;;;;;;;7.20;5.60;;;;;;;;;;112763;1230;60932;-76
2023/07/07 19:20:43;;;;;;;9.30;5.70;;;;;;;;;;112670;1230;57980;-74
2023/07/07 19:23:11;;;;;;;7.30;4.60;;;;;;;;;;112671;1231;58114;-74
2023/07/07 19:25:37;;;;;;;8.80;5.20;;;;;;;;;;112624;1230;58089;-73
2023/07/07 19:28:03;;;;;;;9.20;6.70;;;;;;;;;;112623;1231;58102;-74
2023/07/07 19:30:28;;;;;;;18.60;14.30;;;;;;;;;;112738;1230;58129;-73
2023/07/07 19:32:54;;;;;;;43.70;31.70;;;;;;;;;;112621;1232;58114;-74
2023/07/07 19:35:20;;;;;;;46.60;34.40;;;;;;;;;;112687;1230;58191;-76
2023/07/07 19:37:46;;;;;;;42.80;32.60;;;;;;;;;;112572;1230;148888;-74
2023/07/07 19:40:25;;;;;;;44.00;32.20;;;;;;;;;;112726;1229;58302;-74
2023/07/07 19:42:50;;;;;;;40.60;31.30;;;;;;;;;;112646;1231;58138;-74
2023/07/07 19:45:16;;;;;;;43.70;30.50;;;;;;;;;;112649;1230;58154;-74
2023/07/07 19:47:44;;;;;;;36.00;26.40;;;;;;;;;;112633;1230;58164;-74
2023/07/07 19:50:30;;;;;;;34.40;24.20;;;;;;;;;;112639;1230;58175;-74
2023/07/07 19:52:56;;;;;;;29.70;23.80;;;;;;;;;;112641;1230;60959;-75
2023/07/07 19:55:22;;;;;;;31.80;22.80;;;;;;;;;;112661;1231;58093;-75
2023/07/07 19:57:47;;;;;;;24.70;19.40;;;;;;;;;;112735;1229;58150;-76
2023/07/07 20:00:21;;;;;;;21.70;17.20;;;;;;;;;;112627;1231;58154;-75
2023/07/07 20:02:48;;;;;;;20.50;16.30;;;;;;;;;;112639;1229;58064;-73
2023/07/07 20:05:14;;;;;;;22.50;16.30;;;;;;;;;;112635;1231;59947;-73
2023/07/07 20:07:39;;;;;;;19.40;15.30;;;;;;;;;;112647;1231;58157;-74
2023/07/07 20:10:11;;;;;;;22.50;16.20;;;;;;;;;;112650;1229;58098;-74
2023/07/07 20:12:37;;;;;;;23.90;16.50;;;;;;;;;;112437;1231;58183;-75
2023/07/07 20:15:03;;;;;;;18.60;15.30;;;;;;;;;;112679;1230;58088;-73
2023/07/07 20:17:29;;;;;;;18.90;15.00;;;;;;;;;;112637;1230;58158;-74
2023/07/07 20:19:55;;;;;;;20.40;15.70;;;;;;;;;;112659;1229;59078;-74
2023/07/07 20:22:20;;;;;;;21.00;17.50;;;;;;;;;;112618;1229;58087;-75
2023/07/07 20:24:47;;;;;;;23.90;16.90;;;;;;;;;;112611;1230;58148;-75
2023/07/07 20:27:12;;;;;;;21.30;16.20;;;;;;;;;;112679;1230;58604;-74
2023/07/07 20:29:38;;;;;;;19.70;16.80;;;;;;;;;;112749;1230;58361;-74
2023/07/07 20:32:11;;;;;;;21.20;16.90;;;;;;;;;;112590;1231;58513;-73
2023/07/07 20:34:36;;;;;;;27.40;18.70;;;;;;;;;;112578;1230;58108;-73
2023/07/07 20:37:02;;;;;;;25.30;20.10;;;;;;;;;;112612;1230;58109;-74
2023/07/07 20:39:28;;;;;;;32.10;23.60;;;;;;;;;;112406;1230;58106;-74
2023/07/07 20:41:54;;;;;;;25.70;21.20;;;;;;;;;;112292;1231;58420;-74
2023/07/07 20:44:20;;;;;;;29.60;22.00;;;;;;;;;;112613;1230;58168;-74